Time;durP1;ratioP1;P1;durP2;ratioP2;P2;SDS_P1;SDS_P2;PMS_P1;PMS_P2;Temp;Humidity;BMP_temperature;BMP_pressure;BME280_temperature;BME280_humidity;BME280_pressure;Samples;Min_cycle;Max_cycle;Signal;HPM_P1;HPM_P2
2022/11/19 00:01:08;;;;;;;10.10;9.30;;;;;;;;;;5001515;28;20038;-68
2022/11/19 00:03:35;;;;;;;10.30;9.30;;;;;;;;;;5000816;28;20044;-68
2022/11/19 00:06:03;;;;;;;10.52;9.52;;;;;;;;;;5000357;28;20038;-69
2022/11/19 00:08:29;;;;;;;9.55;8.70;;;;;;;;;;5000509;28;20070;-68
2022/11/19 00:10:54;;;;;;;9.77;9.05;;;;;;;;;;5001022;28;20903;-68
2022/11/19 00:13:20;;;;;;;9.73;8.93;;;;;;;;;;5001732;28;20037;-68
2022/11/19 00:15:45;;;;;;;11.18;8.63;;;;;;;;;;5001530;28;20041;-68
2022/11/19 00:18:11;;;;;;;10.02;9.23;;;;;;;;;;5000456;28;20029;-68
2022/11/19 00:20:36;;;;;;;11.32;9.00;;;;;;;;;;5001477;28;20021;-69
2022/11/19 00:23:02;;;;;;;9.60;8.82;;;;;;;;;;5000536;28;20554;-67
2022/11/19 00:25:29;;;;;;;9.93;9.10;;;;;;;;;;5001983;28;20137;-67
2022/11/19 00:27:56;;;;;;;9.77;8.98;;;;;;;;;;4999400;28;21445;-68
2022/11/19 00:30:21;;;;;;;9.93;9.13;;;;;;;;;;5001512;28;20038;-68
2022/11/19 00:32:47;;;;;;;9.68;8.93;;;;;;;;;;5000858;28;20455;-67
2022/11/19 00:35:12;;;;;;;8.00;7.50;;;;;;;;;;5000549;28;20046;-68
2022/11/19 00:37:38;;;;;;;9.45;7.90;;;;;;;;;;4997591;28;20301;-68
2022/11/19 00:40:06;;;;;;;8.77;8.02;;;;;;;;;;5001546;28;20040;-69
2022/11/19 00:42:33;;;;;;;8.52;8.02;;;;;;;;;;5001029;28;20034;-69
2022/11/19 00:44:58;;;;;;;8.52;7.78;;;;;;;;;;4999541;28;20073;-69
2022/11/19 00:47:24;;;;;;;8.70;7.90;;;;;;;;;;5001490;28;20068;-69
2022/11/19 00:49:50;;;;;;;8.77;8.10;;;;;;;;;;5001651;28;20061;-69
2022/11/19 00:52:15;;;;;;;8.25;7.40;;;;;;;;;;4997988;28;20123;-69
2022/11/19 00:54:41;;;;;;;9.35;8.55;;;;;;;;;;4999301;28;20653;-69
2022/11/19 00:57:07;;;;;;;8.68;8.07;;;;;;;;;;5001035;28;20559;-69
2022/11/19 00:59:32;;;;;;;8.50;7.75;;;;;;;;;;5001538;28;20033;-69
2022/11/19 01:01:58;;;;;;;8.07;7.50;;;;;;;;;;5003567;28;20036;-69
2022/11/19 01:04:23;;;;;;;8.60;7.90;;;;;;;;;;5001798;28;20040;-68
2022/11/19 01:06:49;;;;;;;9.02;8.43;;;;;;;;;;4999681;28;20037;-69
2022/11/19 01:09:15;;;;;;;9.52;8.32;;;;;;;;;;5001031;28;20512;-69
2022/11/19 01:11:40;;;;;;;8.32;7.65;;;;;;;;;;4998577;28;20032;-69
2022/11/19 01:14:07;;;;;;;8.05;7.40;;;;;;;;;;5000855;28;20065;-69
2022/11/19 01:16:35;;;;;;;8.30;7.65;;;;;;;;;;5000713;28;20041;-69
2022/11/19 01:19:02;;;;;;;8.63;8.02;;;;;;;;;;5001245;28;20026;-69
2022/11/19 01:21:30;;;;;;;8.75;8.10;;;;;;;;;;4997418;28;20034;-69
2022/11/19 01:23:56;;;;;;;8.48;7.78;;;;;;;;;;5000140;28;20037;-69
2022/11/19 01:26:22;;;;;;;8.35;7.75;;;;;;;;;;5000446;28;20038;-69
2022/11/19 01:28:47;;;;;;;8.52;8.00;;;;;;;;;;4999063;28;20044;-69
2022/11/19 01:31:25;;;;;;;10.95;7.97;;;;;;;;;;5001349;28;20033;-68
2022/11/19 01:33:52;;;;;;;9.27;8.30;;;;;;;;;;5000679;28;20049;-69
2022/11/19 01:36:20;;;;;;;7.88;7.38;;;;;;;;;;4999937;28;20077;-69
2022/11/19 01:38:49;;;;;;;8.55;7.75;;;;;;;;;;4998772;28;20457;-68
2022/11/19 01:41:29;;;;;;;7.60;7.10;;;;;;;;;;4999495;28;20116;-69
2022/11/19 01:44:00;;;;;;;8.20;7.60;;;;;;;;;;5002068;28;20030;-69
2022/11/19 01:46:28;;;;;;;8.48;7.75;;;;;;;;;;4998218;28;20036;-69
2022/11/19 01:48:56;;;;;;;7.93;7.43;;;;;;;;;;5002880;28;20474;-69
2022/11/19 01:51:31;;;;;;;7.45;6.85;;;;;;;;;;5004452;28;20457;-69
2022/11/19 01:54:02;;;;;;;8.30;7.70;;;;;;;;;;5000624;28;20037;-69
2022/11/19 01:56:31;;;;;;;11.05;8.18;;;;;;;;;;4996867;28;20334;-69
2022/11/19 01:59:09;;;;;;;7.93;7.25;;;;;;;;;;5004761;28;20465;-68
2022/11/19 02:01:34;;;;;;;8.70;8.00;;;;;;;;;;5004704;28;20041;-67
2022/11/19 02:04:01;;;;;;;8.93;8.00;;;;;;;;;;5000652;28;20095;-67
2022/11/19 02:06:28;;;;;;;7.95;7.05;;;;;;;;;;5002951;28;20091;-68
2022/11/19 02:08:54;;;;;;;9.18;8.20;;;;;;;;;;5004742;28;20096;-68
2022/11/19 02:11:22;;;;;;;8.32;7.72;;;;;;;;;;5004562;28;20034;-68
2022/11/19 02:14:03;;;;;;;8.70;8.10;;;;;;;;;;5003006;28;20069;-68
2022/11/19 02:17:13;;;;;;;8.27;7.65;;;;;;;;;;5000174;28;20128;-68
2022/11/19 02:19:51;;;;;;;9.70;8.35;;;;;;;;;;5001932;28;20077;-68
2022/11/19 02:22:34;;;;;;;8.10;7.60;;;;;;;;;;5003303;28;20184;-67
2022/11/19 02:25:29;;;;;;;9.65;8.85;;;;;;;;;;5003656;28;20065;-68
2022/11/19 02:28:04;;;;;;;9.30;8.32;;;;;;;;;;5001857;28;20132;-68
2022/11/19 02:30:35;;;;;;;8.40;7.60;;;;;;;;;;5005036;28;20095;-68
2022/11/19 02:33:04;;;;;;;9.68;8.18;;;;;;;;;;5001274;28;20112;-68
2022/11/19 02:35:39;;;;;;;8.90;8.27;;;;;;;;;;5003460;28;20057;-68
2022/11/19 02:38:41;;;;;;;8.73;8.07;;;;;;;;;;5002530;28;20033;-68
2022/11/19 02:41:33;;;;;;;8.75;8.13;;;;;;;;;;4960524;28;20047;-67
2022/11/19 02:47:06;;;;;;;8.65;7.85;;;;;;;;;;4957284;28;20688;-68
2022/11/19 02:49:34;;;;;;;8.77;8.00;;;;;;;;;;4961255;28;20121;-68
2022/11/19 02:52:00;;;;;;;8.83;8.10;;;;;;;;;;4958132;28;20692;-68
2022/11/19 02:54:26;;;;;;;8.90;8.10;;;;;;;;;;4962305;28;20054;-68
2022/11/19 02:56:59;;;;;;;10.55;8.70;;;;;;;;;;4959492;28;20078;-68
2022/11/19 03:05:20;;;;;;;9.18;8.40;;;;;;;;;;4966489;28;20518;-68
2022/11/19 03:07:47;;;;;;;9.57;8.88;;;;;;;;;;4964102;28;20042;-68
2022/11/19 03:10:14;;;;;;;9.38;8.77;;;;;;;;;;4966590;28;20038;-68
2022/11/19 03:12:45;;;;;;;8.90;8.30;;;;;;;;;;4967007;28;20051;-68
2022/11/19 03:18:30;;;;;;;9.00;8.18;;;;;;;;;;4998387;28;20100;-68
2022/11/19 03:21:20;;;;;;;9.13;8.43;;;;;;;;;;5008230;28;20053;-68
2022/11/19 03:23:59;;;;;;;8.25;7.75;;;;;;;;;;5001075;28;20038;-67
2022/11/19 03:26:32;;;;;;;9.00;8.40;;;;;;;;;;5003717;28;20449;-68
2022/11/19 03:29:02;;;;;;;8.73;8.07;;;;;;;;;;5008478;28;20037;-68
2022/11/19 03:31:30;;;;;;;8.35;7.85;;;;;;;;;;5006295;28;20041;-68
2022/11/19 03:34:02;;;;;;;8.70;8.05;;;;;;;;;;5006845;28;20041;-68
2022/11/19 03:36:37;;;;;;;8.48;7.88;;;;;;;;;;5002781;28;20108;-68
2022/11/19 03:39:07;;;;;;;8.98;8.27;;;;;;;;;;5008337;28;20088;-68
2022/11/19 03:41:36;;;;;;;8.75;8.15;;;;;;;;;;5005521;28;20069;-68
2022/11/19 03:44:14;;;;;;;7.88;7.38;;;;;;;;;;5006688;28;20034;-67
2022/11/19 03:46:43;;;;;;;9.10;8.18;;;;;;;;;;5006880;28;20497;-68
2022/11/19 03:49:10;;;;;;;8.00;7.50;;;;;;;;;;5008674;28;20549;-68
2022/11/19 03:51:54;;;;;;;8.45;7.85;;;;;;;;;;4997579;28;20034;-68
2022/11/19 03:54:20;;;;;;;9.05;8.15;;;;;;;;;;5006689;28;20056;-68
2022/11/19 03:56:47;;;;;;;9.10;8.48;;;;;;;;;;5005424;28;20657;-68
2022/11/19 03:59:13;;;;;;;9.15;8.40;;;;;;;;;;5008171;28;20121;-68
2022/11/19 04:01:39;;;;;;;8.48;7.85;;;;;;;;;;5003055;28;20498;-68
2022/11/19 04:06:49;;;;;;;8.18;7.68;;;;;;;;;;4998705;28;20045;-68
2022/11/19 04:09:15;;;;;;;8.57;7.88;;;;;;;;;;5002700;28;20038;-68
2022/11/19 04:11:40;;;;;;;7.88;7.38;;;;;;;;;;5006112;28;20048;-68
2022/11/19 04:14:06;;;;;;;9.43;8.10;;;;;;;;;;5003920;28;20034;-68
2022/11/19 04:16:32;;;;;;;11.30;8.07;;;;;;;;;;4997553;28;20030;-68
2022/11/19 04:18:57;;;;;;;8.40;7.82;;;;;;;;;;5003013;28;20033;-67
2022/11/19 04:21:23;;;;;;;9.20;8.30;;;;;;;;;;5001648;28;20038;-68
2022/11/19 04:23:48;;;;;;;8.95;8.30;;;;;;;;;;5000118;28;20112;-68
2022/11/19 04:26:14;;;;;;;9.18;8.48;;;;;;;;;;5002452;28;20528;-68
2022/11/19 04:28:39;;;;;;;8.82;8.13;;;;;;;;;;5002843;28;20133;-68
2022/11/19 04:31:05;;;;;;;8.23;7.68;;;;;;;;;;5002786;28;20048;-68
2022/11/19 04:33:30;;;;;;;8.38;7.72;;;;;;;;;;4999491;28;20038;-68
2022/11/19 04:35:56;;;;;;;8.52;7.88;;;;;;;;;;5001687;28;20485;-68
2022/11/19 04:38:21;;;;;;;8.52;8.00;;;;;;;;;;5002381;28;20038;-68
2022/11/19 04:40:47;;;;;;;8.40;7.80;;;;;;;;;;5000552;28;20065;-68
2022/11/19 04:43:12;;;;;;;8.70;8.00;;;;;;;;;;5001811;28;20029;-68
2022/11/19 04:45:38;;;;;;;8.13;7.63;;;;;;;;;;5002553;28;20143;-68
2022/11/19 04:48:03;;;;;;;9.00;8.40;;;;;;;;;;5001758;28;20065;-68
2022/11/19 04:50:29;;;;;;;9.02;8.30;;;;;;;;;;5001089;28;20126;-68
2022/11/19 04:52:54;;;;;;;8.52;7.82;;;;;;;;;;5000716;28;20050;-68
2022/11/19 04:55:20;;;;;;;8.85;8.15;;;;;;;;;;5002495;28;20044;-68
2022/11/19 04:57:45;;;;;;;9.18;8.27;;;;;;;;;;5002787;28;20038;-68
2022/11/19 05:00:12;;;;;;;7.95;7.45;;;;;;;;;;4999669;28;20401;-68
2022/11/19 05:02:37;;;;;;;9.82;7.80;;;;;;;;;;5001426;28;20123;-69
2022/11/19 05:05:03;;;;;;;8.25;7.70;;;;;;;;;;5002107;28;20489;-68
2022/11/19 05:07:28;;;;;;;8.52;7.80;;;;;;;;;;4999080;28;20042;-68
2022/11/19 05:09:54;;;;;;;9.02;8.20;;;;;;;;;;5001554;28;20594;-68
2022/11/19 05:12:20;;;;;;;8.73;8.00;;;;;;;;;;4999130;28;20072;-68
2022/11/19 05:14:45;;;;;;;7.82;7.30;;;;;;;;;;5001505;28;20030;-68
2022/11/19 05:17:11;;;;;;;8.38;7.78;;;;;;;;;;5001284;28;20061;-68
2022/11/19 05:19:36;;;;;;;8.02;7.35;;;;;;;;;;5002173;28;20477;-68
2022/11/19 05:22:02;;;;;;;9.32;8.52;;;;;;;;;;4997528;28;20040;-68
2022/11/19 05:24:27;;;;;;;9.23;8.43;;;;;;;;;;5003757;28;20041;-68
2022/11/19 05:26:53;;;;;;;8.98;8.20;;;;;;;;;;5005147;28;20044;-68
2022/11/19 05:29:18;;;;;;;9.20;8.38;;;;;;;;;;5004151;28;20784;-68
2022/11/19 05:31:44;;;;;;;9.85;8.82;;;;;;;;;;5005209;28;20048;-68
2022/11/19 05:34:09;;;;;;;8.80;8.20;;;;;;;;;;5005429;28;20042;-68
2022/11/19 05:36:35;;;;;;;9.20;8.40;;;;;;;;;;5004186;28;20046;-68
2022/11/19 05:39:00;;;;;;;8.70;8.02;;;;;;;;;;5002631;28;20109;-68
2022/11/19 05:41:26;;;;;;;7.95;7.45;;;;;;;;;;5004273;28;20049;-68
2022/11/19 05:43:51;;;;;;;8.85;8.25;;;;;;;;;;5004121;28;20034;-68
2022/11/19 05:46:17;;;;;;;8.98;8.27;;;;;;;;;;5002847;28;20074;-68
2022/11/19 05:48:42;;;;;;;9.30;8.40;;;;;;;;;;5005166;28;20038;-68
2022/11/19 05:51:15;;;;;;;8.82;8.13;;;;;;;;;;5005025;28;20061;-68
2022/11/19 05:53:41;;;;;;;8.85;8.05;;;;;;;;;;5000267;28;20050;-68
2022/11/19 05:56:07;;;;;;;8.65;8.05;;;;;;;;;;5001533;28;20069;-68
2022/11/19 05:58:32;;;;;;;8.73;7.95;;;;;;;;;;5004851;28;20178;-68
2022/11/19 06:00:58;;;;;;;8.73;8.13;;;;;;;;;;5004506;28;20034;-68
2022/11/19 06:03:24;;;;;;;8.45;7.88;;;;;;;;;;5001977;28;20040;-68
2022/11/19 06:05:50;;;;;;;9.13;8.35;;;;;;;;;;4997643;28;20041;-68
2022/11/19 06:08:16;;;;;;;8.65;7.95;;;;;;;;;;5005290;28;20042;-68
2022/11/19 06:10:42;;;;;;;9.05;8.20;;;;;;;;;;5006738;28;20112;-68
2022/11/19 06:13:07;;;;;;;9.70;8.82;;;;;;;;;;5006710;28;20052;-68
2022/11/19 06:15:33;;;;;;;8.95;8.25;;;;;;;;;;5002533;28;20508;-68
2022/11/19 06:17:58;;;;;;;8.68;8.07;;;;;;;;;;5009087;28;20037;-68
2022/11/19 06:20:24;;;;;;;8.57;7.78;;;;;;;;;;5010103;28;20029;-70
2022/11/19 06:22:50;;;;;;;9.35;8.45;;;;;;;;;;5007178;28;20160;-71
2022/11/19 06:25:16;;;;;;;8.45;7.90;;;;;;;;;;5006604;28;20042;-71
2022/11/19 06:27:42;;;;;;;8.80;7.90;;;;;;;;;;5006077;28;20034;-70
2022/11/19 06:30:08;;;;;;;8.80;8.20;;;;;;;;;;5009988;28;20041;-71
2022/11/19 06:32:34;;;;;;;8.75;7.93;;;;;;;;;;5007747;28;20058;-70
2022/11/19 06:34:59;;;;;;;8.75;8.05;;;;;;;;;;5006614;28;20194;-70
2022/11/19 06:37:25;;;;;;;9.10;8.15;;;;;;;;;;5004073;28;20030;-70
2022/11/19 06:39:50;;;;;;;9.00;8.20;;;;;;;;;;5006789;28;20034;-71
2022/11/19 06:45:01;;;;;;;8.45;7.85;;;;;;;;;;5001838;28;20080;-70
2022/11/19 06:47:30;;;;;;;8.52;7.82;;;;;;;;;;5003554;28;20034;-70
2022/11/19 06:49:56;;;;;;;8.88;8.25;;;;;;;;;;5003896;28;20029;-70
2022/11/19 06:52:21;;;;;;;8.98;8.20;;;;;;;;;;5000166;28;20041;-70
2022/11/19 06:54:47;;;;;;;8.43;7.72;;;;;;;;;;5003408;28;20052;-70
2022/11/19 06:57:13;;;;;;;9.02;8.32;;;;;;;;;;5002555;28;20029;-70
2022/11/19 06:59:38;;;;;;;8.70;8.10;;;;;;;;;;5002020;28;20113;-70
2022/11/19 07:02:05;;;;;;;8.50;7.90;;;;;;;;;;5003056;28;20540;-71
2022/11/19 07:04:30;;;;;;;9.15;8.55;;;;;;;;;;5004004;28;20127;-71
2022/11/19 07:06:56;;;;;;;8.50;8.00;;;;;;;;;;5002604;28;20540;-71
2022/11/19 07:09:21;;;;;;;7.95;7.45;;;;;;;;;;4999507;28;20056;-70
2022/11/19 07:11:47;;;;;;;8.82;8.02;;;;;;;;;;5002066;28;20033;-70
2022/11/19 07:14:12;;;;;;;8.50;7.90;;;;;;;;;;5004383;28;20033;-71
2022/11/19 07:16:38;;;;;;;8.80;8.00;;;;;;;;;;5000910;28;20393;-70
2022/11/19 07:19:05;;;;;;;8.43;7.93;;;;;;;;;;5003064;28;20044;-71
2022/11/19 07:21:31;;;;;;;8.25;7.65;;;;;;;;;;5002623;28;20034;-71
2022/11/19 07:23:58;;;;;;;9.20;8.48;;;;;;;;;;5000483;28;20030;-71
2022/11/19 07:26:24;;;;;;;9.38;8.52;;;;;;;;;;5002480;28;20037;-71
2022/11/19 07:28:50;;;;;;;9.18;8.57;;;;;;;;;;5003112;28;20034;-70
2022/11/19 07:31:15;;;;;;;9.32;8.60;;;;;;;;;;5003327;28;20726;-71
2022/11/19 07:33:41;;;;;;;9.00;8.38;;;;;;;;;;5002145;28;20048;-71
2022/11/19 07:36:09;;;;;;;9.82;9.02;;;;;;;;;;5001402;28;20038;-71
2022/11/19 07:38:35;;;;;;;10.02;9.13;;;;;;;;;;5003061;28;20092;-71
2022/11/19 07:42:47;;;;;;;9.73;8.90;;;;;;;;;;5002758;28;20061;-70
2022/11/19 07:43:48;;;;;;;9.32;8.63;;;;;;;;;;5000549;28;20161;-70
2022/11/19 07:46:13;;;;;;;9.73;8.90;;;;;;;;;;5002090;28;20092;-71
2022/11/19 07:48:39;;;;;;;8.98;8.27;;;;;;;;;;5002454;28;20461;-70
2022/11/19 07:51:04;;;;;;;9.68;8.88;;;;;;;;;;5001131;28;20067;-70
2022/11/19 07:53:30;;;;;;;9.13;8.32;;;;;;;;;;5002152;28;20048;-71
2022/11/19 07:55:58;;;;;;;9.00;7.93;;;;;;;;;;5002463;28;20161;-71
2022/11/19 07:58:24;;;;;;;8.93;8.13;;;;;;;;;;5004167;28;20041;-71
2022/11/19 08:00:49;;;;;;;8.65;8.05;;;;;;;;;;5001913;28;20041;-70
2022/11/19 08:03:15;;;;;;;9.32;8.63;;;;;;;;;;5002089;28;20113;-70
2022/11/19 08:05:41;;;;;;;9.20;8.50;;;;;;;;;;5002282;28;20033;-70
2022/11/19 08:08:07;;;;;;;9.80;9.10;;;;;;;;;;5000657;28;20725;-71
2022/11/19 08:10:33;;;;;;;9.48;8.68;;;;;;;;;;4999444;28;20474;-71
2022/11/19 08:13:02;;;;;;;9.05;8.35;;;;;;;;;;5001573;28;20044;-71
2022/11/19 08:15:32;;;;;;;8.90;8.00;;;;;;;;;;4999985;28;20117;-71
2022/11/19 08:18:17;;;;;;;9.07;8.38;;;;;;;;;;4996917;28;20041;-71
2022/11/19 08:20:44;;;;;;;8.82;8.23;;;;;;;;;;4999886;28;20069;-71
2022/11/19 08:23:10;;;;;;;9.30;8.50;;;;;;;;;;5001696;28;20045;-71
2022/11/19 08:25:37;;;;;;;9.00;8.30;;;;;;;;;;5000193;28;20117;-71
2022/11/19 08:28:04;;;;;;;9.15;8.45;;;;;;;;;;5002129;28;20033;-71
2022/11/19 08:30:31;;;;;;;8.40;7.82;;;;;;;;;;4999503;28;20033;-70
2022/11/19 08:32:56;;;;;;;8.77;8.10;;;;;;;;;;5000391;28;20069;-71
2022/11/19 08:35:23;;;;;;;9.18;8.32;;;;;;;;;;5002403;28;20143;-70
2022/11/19 08:37:48;;;;;;;10.38;8.60;;;;;;;;;;5000814;28;20034;-69
2022/11/19 08:40:14;;;;;;;9.45;8.75;;;;;;;;;;5000837;28;20425;-71
2022/11/19 08:45:36;;;;;;;9.23;8.32;;;;;;;;;;5002943;28;20052;-71
2022/11/19 08:48:05;;;;;;;8.82;8.23;;;;;;;;;;4999570;28;20179;-71
2022/11/19 08:50:31;;;;;;;8.20;7.60;;;;;;;;;;5002156;28;20037;-70
2022/11/19 08:53:02;;;;;;;9.38;8.68;;;;;;;;;;5000472;28;20065;-71
2022/11/19 08:55:29;;;;;;;9.07;8.35;;;;;;;;;;5002543;28;20033;-71
2022/11/19 08:58:03;;;;;;;9.20;8.40;;;;;;;;;;4998169;28;20034;-71
2022/11/19 09:00:29;;;;;;;8.10;7.57;;;;;;;;;;4997729;28;20038;-71
2022/11/19 09:02:55;;;;;;;8.77;8.15;;;;;;;;;;4999723;28;20046;-71
2022/11/19 09:05:20;;;;;;;8.55;7.85;;;;;;;;;;5000791;28;20052;-71
2022/11/19 09:07:46;;;;;;;8.57;7.97;;;;;;;;;;5000952;28;20042;-71
2022/11/19 09:10:12;;;;;;;8.50;8.00;;;;;;;;;;4999811;28;20042;-71
2022/11/19 09:12:37;;;;;;;9.05;8.13;;;;;;;;;;4999734;28;20087;-71
2022/11/19 09:15:04;;;;;;;8.57;7.90;;;;;;;;;;5002266;28;20037;-71
2022/11/19 09:17:29;;;;;;;8.77;8.07;;;;;;;;;;5001859;28;20034;-71
2022/11/19 09:19:55;;;;;;;8.38;7.65;;;;;;;;;;4999775;28;20029;-72
2022/11/19 09:22:21;;;;;;;8.65;8.00;;;;;;;;;;5000399;28;20113;-71
2022/11/19 09:24:46;;;;;;;8.50;7.72;;;;;;;;;;5001487;28;20037;-71
2022/11/19 09:27:12;;;;;;;8.32;7.72;;;;;;;;;;5001314;28;20036;-71
2022/11/19 09:29:38;;;;;;;7.85;7.35;;;;;;;;;;4998523;28;20121;-72
2022/11/19 09:32:04;;;;;;;7.55;7.13;;;;;;;;;;5001822;28;20181;-71
2022/11/19 09:34:29;;;;;;;7.80;7.20;;;;;;;;;;5001364;28;20131;-71
2022/11/19 09:36:55;;;;;;;7.47;6.97;;;;;;;;;;4998156;28;20034;-71
2022/11/19 09:39:20;;;;;;;6.90;6.50;;;;;;;;;;5001005;28;20030;-71
2022/11/19 09:41:54;;;;;;;7.32;6.93;;;;;;;;;;5001188;28;20711;-70
2022/11/19 09:44:40;;;;;;;7.35;6.75;;;;;;;;;;5000478;28;20041;-71
2022/11/19 09:47:26;;;;;;;7.22;6.82;;;;;;;;;;4996734;28;20049;-71
2022/11/19 09:50:14;;;;;;;7.65;7.05;;;;;;;;;;5002126;28;20042;-72
2022/11/19 09:52:50;;;;;;;7.03;6.53;;;;;;;;;;5000226;28;20030;-71
2022/11/19 09:55:22;;;;;;;7.78;7.22;;;;;;;;;;4998658;28;20514;-71
2022/11/19 09:57:54;;;;;;;7.45;7.05;;;;;;;;;;4999584;28;20038;-71
2022/11/19 10:00:23;;;;;;;9.07;8.40;;;;;;;;;;5000613;28;20467;-72
2022/11/19 10:02:49;;;;;;;7.32;6.88;;;;;;;;;;4991610;28;20486;-72
2022/11/19 10:05:25;;;;;;;8.27;7.78;;;;;;;;;;5001260;28;20165;-71
2022/11/19 10:08:08;;;;;;;7.30;6.85;;;;;;;;;;4999404;28;20469;-72
2022/11/19 10:10:41;;;;;;;8.38;7.80;;;;;;;;;;5001590;28;20034;-72
2022/11/19 10:13:17;;;;;;;7.90;7.30;;;;;;;;;;5003643;28;20049;-72
2022/11/19 10:15:53;;;;;;;8.02;7.43;;;;;;;;;;5004438;28;20042;-72
2022/11/19 10:18:47;;;;;;;8.13;7.45;;;;;;;;;;5002108;28;20117;-71
2022/11/19 10:21:30;;;;;;;8.35;7.68;;;;;;;;;;5003763;28;20080;-71
2022/11/19 10:24:19;;;;;;;8.52;7.82;;;;;;;;;;5004529;28;20041;-71
2022/11/19 10:26:56;;;;;;;7.80;7.30;;;;;;;;;;5003165;28;20120;-72
2022/11/19 10:29:26;;;;;;;8.43;7.82;;;;;;;;;;5005171;28;20038;-72
2022/11/19 10:31:52;;;;;;;9.20;8.43;;;;;;;;;;4999716;28;20493;-71
2022/11/19 10:34:28;;;;;;;8.38;7.75;;;;;;;;;;5001018;28;20038;-71
2022/11/19 10:37:17;;;;;;;8.18;7.57;;;;;;;;;;5003524;28;20033;-71
2022/11/19 10:39:48;;;;;;;8.25;7.65;;;;;;;;;;5003078;28;20077;-71
2022/11/19 10:42:35;;;;;;;7.82;7.30;;;;;;;;;;4999514;28;20109;-71
2022/11/19 10:45:15;;;;;;;8.05;7.38;;;;;;;;;;5001611;28;20060;-71
2022/11/19 10:47:55;;;;;;;6.95;6.55;;;;;;;;;;5001256;28;20507;-71
2022/11/19 10:50:23;;;;;;;7.95;7.38;;;;;;;;;;5003775;28;20452;-71
2022/11/19 10:52:53;;;;;;;7.53;7.03;;;;;;;;;;5003617;28;20096;-71
2022/11/19 10:55:38;;;;;;;8.25;7.75;;;;;;;;;;5001966;28;20061;-70
2022/11/19 10:58:20;;;;;;;8.18;7.57;;;;;;;;;;5003502;28;20096;-71
2022/11/19 11:00:46;;;;;;;8.43;7.82;;;;;;;;;;5004371;28;20041;-71
2022/11/19 11:03:25;;;;;;;8.40;7.78;;;;;;;;;;5004450;28;20493;-71
2022/11/19 11:05:54;;;;;;;8.65;7.90;;;;;;;;;;5004097;28;20515;-71
2022/11/19 11:08:20;;;;;;;;;;;;;;;;;;5005022;28;20045;-71
2022/11/19 11:10:45;;;;;;;7.38;6.97;;;;;;;;;;5004631;28;19913;-71
2022/11/19 11:16:12;;;;;;;;;;;;;;;;;;5004161;28;20085;-71
2022/11/19 11:18:41;;;;;;;8.57;7.80;;;;;;;;;;5004166;28;20011;-70
2022/11/19 11:21:12;;;;;;;8.30;7.80;;;;;;;;;;5002692;28;20112;-71
2022/11/19 11:23:50;;;;;;;10.38;9.52;;;;;;;;;;5001723;28;20387;-71
2022/11/19 11:26:25;;;;;;;7.97;7.47;;;;;;;;;;5003254;28;20041;-71
2022/11/19 11:28:56;;;;;;;8.32;7.72;;;;;;;;;;5003685;28;20363;-71
2022/11/19 11:31:47;;;;;;;8.90;8.30;;;;;;;;;;5002455;28;20271;-70
2022/11/19 11:34:41;;;;;;;9.30;8.50;;;;;;;;;;5002663;28;20038;-71
2022/11/19 11:37:09;;;;;;;8.15;7.65;;;;;;;;;;5003475;28;20034;-70
2022/11/19 11:39:42;;;;;;;8.30;7.50;;;;;;;;;;5001875;28;20068;-70
2022/11/19 11:42:11;;;;;;;7.53;7.03;;;;;;;;;;5003794;28;20049;-70
2022/11/19 11:44:46;;;;;;;7.47;6.97;;;;;;;;;;5001879;28;20038;-70
2022/11/19 11:47:19;;;;;;;7.70;7.20;;;;;;;;;;5001044;28;20076;-70
2022/11/19 11:49:54;;;;;;;7.80;7.20;;;;;;;;;;5002513;28;20038;-70
2022/11/19 11:52:27;;;;;;;8.35;7.85;;;;;;;;;;5001942;28;20559;-70
2022/11/19 11:55:04;;;;;;;8.07;7.43;;;;;;;;;;5003255;28;20571;-70
2022/11/19 11:57:32;;;;;;;8.55;7.85;;;;;;;;;;4989107;28;20037;-70
2022/11/19 11:59:59;;;;;;;8.38;7.68;;;;;;;;;;4999798;28;20030;-70
2022/11/19 12:02:34;;;;;;;8.60;8.00;;;;;;;;;;4996423;28;20093;-70
2022/11/19 12:05:05;;;;;;;7.43;6.97;;;;;;;;;;4995250;28;20093;-70
2022/11/19 12:07:40;;;;;;;7.57;6.88;;;;;;;;;;5005272;28;20540;-70
2022/11/19 12:10:25;;;;;;;7.68;7.05;;;;;;;;;;5008439;28;20030;-70
2022/11/19 12:13:15;;;;;;;8.80;8.07;;;;;;;;;;5007879;28;20030;-70
2022/11/19 12:16:02;;;;;;;7.57;7.07;;;;;;;;;;5009175;28;20076;-70
2022/11/19 12:18:42;;;;;;;7.75;7.25;;;;;;;;;;5007300;28;20233;-70
2022/11/19 12:21:52;;;;;;;7.55;6.97;;;;;;;;;;5006155;28;20050;-70
2022/11/19 12:24:55;;;;;;;7.53;6.88;;;;;;;;;;4987264;28;20072;-69
2022/11/19 12:27:39;;;;;;;7.45;6.95;;;;;;;;;;5003179;28;20041;-70
2022/11/19 12:30:18;;;;;;;8.23;7.53;;;;;;;;;;5000320;28;20060;-70
2022/11/19 12:33:07;;;;;;;7.47;6.97;;;;;;;;;;5001859;28;20057;-71
2022/11/19 12:35:51;;;;;;;7.57;7.15;;;;;;;;;;5007099;28;20376;-71
2022/11/19 12:38:43;;;;;;;8.00;7.60;;;;;;;;;;5004511;28;20073;-71
2022/11/19 12:41:35;;;;;;;7.55;6.85;;;;;;;;;;5005156;28;20040;-71
2022/11/19 12:44:11;;;;;;;7.93;7.20;;;;;;;;;;5002023;28;20041;-72
2022/11/19 12:46:56;;;;;;;7.35;6.85;;;;;;;;;;5005659;28;20034;-71
2022/11/19 12:49:40;;;;;;;7.40;7.00;;;;;;;;;;5006936;28;20054;-71
2022/11/19 12:52:08;;;;;;;8.27;7.68;;;;;;;;;;5000401;28;20068;-71
2022/11/19 12:55:04;;;;;;;8.60;7.43;;;;;;;;;;5006987;28;20064;-71
2022/11/19 12:57:43;;;;;;;8.68;7.30;;;;;;;;;;5005965;28;20029;-71
2022/11/19 13:00:14;;;;;;;7.70;7.20;;;;;;;;;;5006463;28;20124;-71
2022/11/19 13:02:48;;;;;;;7.80;7.30;;;;;;;;;;5005989;28;20044;-71
2022/11/19 13:05:21;;;;;;;9.63;8.73;;;;;;;;;;5005910;28;20030;-70
2022/11/19 13:08:15;;;;;;;8.27;7.65;;;;;;;;;;4998905;28;20034;-70
2022/11/19 13:10:46;;;;;;;8.10;7.43;;;;;;;;;;5005942;28;20512;-70
2022/11/19 13:13:15;;;;;;;7.97;7.35;;;;;;;;;;5002469;28;20041;-70
2022/11/19 13:15:55;;;;;;;9.00;8.40;;;;;;;;;;5009580;28;20033;-69
2022/11/19 13:18:22;;;;;;;8.70;8.07;;;;;;;;;;5003851;28;20621;-70
2022/11/19 13:21:04;;;;;;;8.60;8.10;;;;;;;;;;5001740;28;20041;-70
2022/11/19 13:23:36;;;;;;;8.65;8.10;;;;;;;;;;5000867;28;20113;-69
2022/11/19 13:26:11;;;;;;;8.40;7.90;;;;;;;;;;5003899;28;20091;-70
2022/11/19 13:28:43;;;;;;;8.13;7.32;;;;;;;;;;5004292;28;20366;-69
2022/11/19 13:31:22;;;;;;;8.73;8.13;;;;;;;;;;5005526;28;20088;-69
2022/11/19 13:33:57;;;;;;;7.82;7.32;;;;;;;;;;5002124;28;20146;-69
2022/11/19 13:37:11;;;;;;;8.30;7.80;;;;;;;;;;4999056;28;20038;-69
2022/11/19 13:40:00;;;;;;;7.40;6.90;;;;;;;;;;4996026;28;20413;-70
2022/11/19 13:45:16;;;;;;;7.55;7.07;;;;;;;;;;5005526;28;20572;-70
2022/11/19 13:47:58;;;;;;;7.82;6.90;;;;;;;;;;5003390;28;20048;-69
2022/11/19 13:50:31;;;;;;;7.72;7.22;;;;;;;;;;5004521;28;20080;-70
2022/11/19 13:53:34;;;;;;;7.78;7.28;;;;;;;;;;5003597;28;20189;-70
2022/11/19 13:56:00;;;;;;;8.00;7.30;;;;;;;;;;5002079;28;20068;-69
2022/11/19 13:58:34;;;;;;;7.55;7.05;;;;;;;;;;5004522;28;20040;-69
2022/11/19 14:01:06;;;;;;;8.45;7.85;;;;;;;;;;5004820;28;20048;-70
2022/11/19 14:04:06;;;;;;;8.18;7.35;;;;;;;;;;5001901;28;20042;-69
2022/11/19 14:07:02;;;;;;;8.10;7.50;;;;;;;;;;5003037;28;20512;-69
2022/11/19 14:09:46;;;;;;;8.35;7.80;;;;;;;;;;5002785;28;20041;-70
2022/11/19 14:12:51;;;;;;;8.60;8.00;;;;;;;;;;4998713;28;20050;-69
2022/11/19 14:27:30;;;;;;;7.30;6.80;;;;;;;;;;5002861;28;20072;-70
2022/11/19 14:29:58;;;;;;;10.55;7.57;;;;;;;;;;5008000;28;21491;-69
2022/11/19 14:32:28;;;;;;;7.53;7.13;;;;;;;;;;5007590;28;20472;-69
2022/11/19 14:35:00;;;;;;;10.10;7.35;;;;;;;;;;5010613;28;20292;-70
2022/11/19 14:37:33;;;;;;;8.00;7.50;;;;;;;;;;5002763;28;20042;-70
2022/11/19 14:40:11;;;;;;;8.30;7.80;;;;;;;;;;5008778;28;20034;-69
2022/11/19 14:46:01;;;;;;;7.65;7.15;;;;;;;;;;5001133;28;20033;-70
2022/11/19 14:48:40;;;;;;;8.27;7.47;;;;;;;;;;5005912;28;20038;-70
2022/11/19 14:51:10;;;;;;;8.20;7.70;;;;;;;;;;5003431;28;20037;-70
2022/11/19 14:53:45;;;;;;;9.27;8.32;;;;;;;;;;5005517;28;20331;-71
2022/11/19 14:56:13;;;;;;;8.82;8.13;;;;;;;;;;5002610;28;20141;-70
2022/11/19 14:58:55;;;;;;;8.57;7.97;;;;;;;;;;5003529;28;20055;-70
2022/11/19 15:01:22;;;;;;;8.27;7.57;;;;;;;;;;5003748;28;20029;-70
2022/11/19 15:03:54;;;;;;;7.97;7.38;;;;;;;;;;4998135;28;20046;-71
2022/11/19 15:06:21;;;;;;;8.40;7.60;;;;;;;;;;5000409;28;20045;-70
2022/11/19 15:08:52;;;;;;;7.88;7.35;;;;;;;;;;4985630;28;20061;-70
2022/11/19 15:11:19;;;;;;;8.30;7.70;;;;;;;;;;5005109;28;20113;-70
2022/11/19 15:14:08;;;;;;;8.77;8.02;;;;;;;;;;5007875;28;20081;-70
2022/11/19 15:16:34;;;;;;;8.60;7.93;;;;;;;;;;5007725;28;20073;-70
2022/11/19 15:19:03;;;;;;;12.25;8.13;;;;;;;;;;5009549;28;20030;-70
2022/11/19 15:21:46;;;;;;;8.85;8.15;;;;;;;;;;5008262;28;20038;-71
2022/11/19 15:24:51;;;;;;;8.20;7.60;;;;;;;;;;5006930;28;20499;-70
2022/11/19 15:27:29;;;;;;;8.35;7.75;;;;;;;;;;5006618;28;20660;-70
2022/11/19 15:30:29;;;;;;;8.25;7.70;;;;;;;;;;5008077;28;20749;-69
2022/11/19 15:33:07;;;;;;;8.00;7.35;;;;;;;;;;4958349;28;20222;-70
2022/11/19 15:36:10;;;;;;;8.57;7.95;;;;;;;;;;4975901;28;20046;-71
2022/11/19 15:39:14;;;;;;;8.35;7.75;;;;;;;;;;4990113;28;20092;-71
2022/11/19 15:41:59;;;;;;;9.07;8.13;;;;;;;;;;4982376;28;20065;-69
2022/11/19 15:44:41;;;;;;;8.38;7.85;;;;;;;;;;4979689;28;20034;-71
2022/11/19 15:47:17;;;;;;;8.38;7.70;;;;;;;;;;4983781;28;20037;-69
2022/11/19 15:49:44;;;;;;;8.32;7.63;;;;;;;;;;4993236;28;20125;-70
2022/11/19 15:52:10;;;;;;;8.32;7.72;;;;;;;;;;4993289;28;20066;-70